sensor_id;sensor_type;location;lat;lon;timestamp;temperature;humidity
21734;DHT22;11029;47.820;10.534;2022-09-20T00:01:15;6.20;76.80
21734;DHT22;11029;47.820;10.534;2022-09-20T00:03:44;6.10;77.60
21734;DHT22;11029;47.820;10.534;2022-09-20T00:06:17;6.00;77.90
21734;DHT22;11029;47.820;10.534;2022-09-20T00:08:44;5.90;77.60
21734;DHT22;11029;47.820;10.534;2022-09-20T00:11:15;5.90;77.30
21734;DHT22;11029;47.820;10.534;2022-09-20T00:13:45;5.70;77.60
21734;DHT22;11029;47.820;10.534;2022-09-20T00:16:24;5.60;77.70
21734;DHT22;11029;47.820;10.534;2022-09-20T00:18:53;5.50;78.20
21734;DHT22;11029;47.820;10.534;2022-09-20T00:21:22;5.40;78.80
21734;DHT22;11029;47.820;10.534;2022-09-20T00:23:50;5.50;78.20
21734;DHT22;11029;47.820;10.534;2022-09-20T00:26:18;5.50;78.40
21734;DHT22;11029;47.820;10.534;2022-09-20T00:28:44;5.50;78.30
21734;DHT22;11029;47.820;10.534;2022-09-20T00:31:13;5.60;77.80
21734;DHT22;11029;47.820;10.534;2022-09-20T00:33:40;5.60;77.00
21734;DHT22;11029;47.820;10.534;2022-09-20T00:36:25;5.50;76.20
21734;DHT22;11029;47.820;10.534;2022-09-20T00:38:59;5.40;76.40
21734;DHT22;11029;47.820;10.534;2022-09-20T00:41:28;5.30;77.00
21734;DHT22;11029;47.820;10.534;2022-09-20T00:43:55;5.20;77.00
21734;DHT22;11029;47.820;10.534;2022-09-20T00:46:27;5.10;77.70
21734;DHT22;11029;47.820;10.534;2022-09-20T00:48:57;5.20;77.80
21734;DHT22;11029;47.820;10.534;2022-09-20T00:51:28;5.20;77.60
21734;DHT22;11029;47.820;10.534;2022-09-20T00:54:00;5.20;76.80
21734;DHT22;11029;47.820;10.534;2022-09-20T00:56:31;5.20;76.60
21734;DHT22;11029;47.820;10.534;2022-09-20T01:01:30;5.20;76.60
21734;DHT22;11029;47.820;10.534;2022-09-20T01:03:58;5.20;76.30
21734;DHT22;11029;47.820;10.534;2022-09-20T01:06:26;5.20;76.20
21734;DHT22;11029;47.820;10.534;2022-09-20T01:08:55;5.10;76.20
21734;DHT22;11029;47.820;10.534;2022-09-20T01:11:24;5.00;76.30
21734;DHT22;11029;47.820;10.534;2022-09-20T01:13:51;4.90;77.00
21734;DHT22;11029;47.820;10.534;2022-09-20T01:16:19;4.90;77.00
21734;DHT22;11029;47.820;10.534;2022-09-20T01:18:47;4.90;76.70
21734;DHT22;11029;47.820;10.534;2022-09-20T01:21:15;4.90;76.70
21734;DHT22;11029;47.820;10.534;2022-09-20T01:23:54;4.90;76.30
21734;DHT22;11029;47.820;10.534;2022-09-20T01:26:31;4.80;76.60
21734;DHT22;11029;47.820;10.534;2022-09-20T01:29:26;4.80;76.70
21734;DHT22;11029;47.820;10.534;2022-09-20T01:31:58;4.60;77.20
21734;DHT22;11029;47.820;10.534;2022-09-20T01:34:36;4.70;77.70
21734;DHT22;11029;47.820;10.534;2022-09-20T01:37:41;4.70;76.90
21734;DHT22;11029;47.820;10.534;2022-09-20T01:40:30;4.70;77.00
21734;DHT22;11029;47.820;10.534;2022-09-20T01:45:47;4.70;77.10
21734;DHT22;11029;47.820;10.534;2022-09-20T01:48:31;4.70;76.60
21734;DHT22;11029;47.820;10.534;2022-09-20T01:51:23;4.70;76.90
21734;DHT22;11029;47.820;10.534;2022-09-20T01:59:44;4.50;77.10
21734;DHT22;11029;47.820;10.534;2022-09-20T02:05:19;4.40;76.50
21734;DHT22;11029;47.820;10.534;2022-09-20T02:08:31;4.30;76.50
21734;DHT22;11029;47.820;10.534;2022-09-20T02:16:35;4.20;76.70
21734;DHT22;11029;47.820;10.534;2022-09-20T02:19:19;4.10;77.30
21734;DHT22;11029;47.820;10.534;2022-09-20T02:30:37;4.20;76.10
21734;DHT22;11029;47.820;10.534;2022-09-20T02:33:30;4.20;76.80
21734;DHT22;11029;47.820;10.534;2022-09-20T02:39:01;4.10;77.20
21734;DHT22;11029;47.820;10.534;2022-09-20T02:55:43;4.00;77.60
21734;DHT22;11029;47.820;10.534;2022-09-20T03:01:31;3.90;77.60
21734;DHT22;11029;47.820;10.534;2022-09-20T03:04:17;4.00;77.40
21734;DHT22;11029;47.820;10.534;2022-09-20T03:07:08;3.90;77.80
21734;DHT22;11029;47.820;10.534;2022-09-20T03:12:52;3.80;77.10
21734;DHT22;11029;47.820;10.534;2022-09-20T03:21:14;3.60;77.50
21734;DHT22;11029;47.820;10.534;2022-09-20T03:26:50;3.60;77.70
21734;DHT22;11029;47.820;10.534;2022-09-20T03:34:42;3.70;77.50
21734;DHT22;11029;47.820;10.534;2022-09-20T03:37:14;3.70;77.90
21734;DHT22;11029;47.820;10.534;2022-09-20T03:42:46;3.70;78.50
21734;DHT22;11029;47.820;10.534;2022-09-20T03:45:33;3.80;78.70
21734;DHT22;11029;47.820;10.534;2022-09-20T03:51:03;3.90;78.20
21734;DHT22;11029;47.820;10.534;2022-09-20T04:00:03;4.10;77.90
21734;DHT22;11029;47.820;10.534;2022-09-20T04:05:52;4.10;77.60
21734;DHT22;11029;47.820;10.534;2022-09-20T04:11:27;4.10;77.40
21734;DHT22;11029;47.820;10.534;2022-09-20T04:20:04;3.90;77.80
21734;DHT22;11029;47.820;10.534;2022-09-20T04:22:32;3.90;78.10
21734;DHT22;11029;47.820;10.534;2022-09-20T04:25:26;3.90;77.80
21734;DHT22;11029;47.820;10.534;2022-09-20T04:28:01;3.90;78.40
21734;DHT22;11029;47.820;10.534;2022-09-20T04:30:35;3.90;77.80
21734;DHT22;11029;47.820;10.534;2022-09-20T04:33:25;3.90;77.70
21734;DHT22;11029;47.820;10.534;2022-09-20T04:50:41;4.00;78.80
21734;DHT22;11029;47.820;10.534;2022-09-20T04:56:20;3.90;78.20
21734;DHT22;11029;47.820;10.534;2022-09-20T04:59:08;3.80;78.50
21734;DHT22;11029;47.820;10.534;2022-09-20T05:01:45;3.80;79.10
21734;DHT22;11029;47.820;10.534;2022-09-20T05:25:19;3.90;78.30
21734;DHT22;11029;47.820;10.534;2022-09-20T05:28:19;3.90;78.00
21734;DHT22;11029;47.820;10.534;2022-09-20T05:31:05;3.80;78.70
21734;DHT22;11029;47.820;10.534;2022-09-20T05:33:54;3.90;77.60
21734;DHT22;11029;47.820;10.534;2022-09-20T05:36:35;3.90;76.80
21734;DHT22;11029;47.820;10.534;2022-09-20T05:40:10;3.80;76.90
21734;DHT22;11029;47.820;10.534;2022-09-20T05:42:19;3.80;77.70
21734;DHT22;11029;47.820;10.534;2022-09-20T05:50:57;3.90;76.80
21734;DHT22;11029;47.820;10.534;2022-09-20T05:53:59;4.00;77.10
21734;DHT22;11029;47.820;10.534;2022-09-20T05:59:32;4.00;77.50
21734;DHT22;11029;47.820;10.534;2022-09-20T06:04:54;4.10;77.70
21734;DHT22;11029;47.820;10.534;2022-09-20T06:13:10;4.40;78.10
21734;DHT22;11029;47.820;10.534;2022-09-20T06:15:53;4.50;77.20
21734;DHT22;11029;47.820;10.534;2022-09-20T06:18:29;4.70;77.00
21734;DHT22;11029;47.820;10.534;2022-09-20T06:21:04;4.70;77.40
21734;DHT22;11029;47.820;10.534;2022-09-20T06:23:35;4.80;77.00
21734;DHT22;11029;47.820;10.534;2022-09-20T06:26:06;4.80;77.10
21734;DHT22;11029;47.820;10.534;2022-09-20T06:28:40;4.90;77.60
21734;DHT22;11029;47.820;10.534;2022-09-20T06:31:08;5.00;77.10
21734;DHT22;11029;47.820;10.534;2022-09-20T06:33:52;5.00;77.50
21734;DHT22;11029;47.820;10.534;2022-09-20T06:36:27;5.20;78.30
21734;DHT22;11029;47.820;10.534;2022-09-20T06:39:33;5.50;77.40
21734;DHT22;11029;47.820;10.534;2022-09-20T06:42:21;5.80;77.70
21734;DHT22;11029;47.820;10.534;2022-09-20T06:44:52;6.10;77.60
21734;DHT22;11029;47.820;10.534;2022-09-20T06:47:19;6.40;76.60
21734;DHT22;11029;47.820;10.534;2022-09-20T06:49:48;6.60;75.90
21734;DHT22;11029;47.820;10.534;2022-09-20T06:52:18;6.80;76.20
21734;DHT22;11029;47.820;10.534;2022-09-20T06:54:48;6.90;75.60
21734;DHT22;11029;47.820;10.534;2022-09-20T06:57:32;7.10;75.70
21734;DHT22;11029;47.820;10.534;2022-09-20T07:00:01;7.20;75.50
21734;DHT22;11029;47.820;10.534;2022-09-20T07:02:28;7.30;74.90
21734;DHT22;11029;47.820;10.534;2022-09-20T07:04:54;7.40;74.20
21734;DHT22;11029;47.820;10.534;2022-09-20T07:07:24;7.40;73.70
21734;DHT22;11029;47.820;10.534;2022-09-20T07:09:51;7.40;74.20
21734;DHT22;11029;47.820;10.534;2022-09-20T07:12:18;7.40;75.10
21734;DHT22;11029;47.820;10.534;2022-09-20T07:14:45;7.60;74.60
21734;DHT22;11029;47.820;10.534;2022-09-20T07:17:11;7.70;73.50
21734;DHT22;11029;47.820;10.534;2022-09-20T07:19:40;7.90;74.50
21734;DHT22;11029;47.820;10.534;2022-09-20T07:22:06;8.10;74.80
21734;DHT22;11029;47.820;10.534;2022-09-20T07:24:33;8.40;73.40
21734;DHT22;11029;47.820;10.534;2022-09-20T07:27:01;8.60;73.20
21734;DHT22;11029;47.820;10.534;2022-09-20T07:29:28;8.70;70.90
21734;DHT22;11029;47.820;10.534;2022-09-20T07:31:56;8.40;72.00
21734;DHT22;11029;47.820;10.534;2022-09-20T07:34:22;8.30;72.40
21734;DHT22;11029;47.820;10.534;2022-09-20T07:36:49;8.50;72.70
21734;DHT22;11029;47.820;10.534;2022-09-20T07:39:17;8.50;70.90
21734;DHT22;11029;47.820;10.534;2022-09-20T07:41:44;8.50;71.60
21734;DHT22;11029;47.820;10.534;2022-09-20T07:44:16;8.50;71.10
21734;DHT22;11029;47.820;10.534;2022-09-20T07:46:51;8.60;72.20
21734;DHT22;11029;47.820;10.534;2022-09-20T07:49:19;8.70;71.90
21734;DHT22;11029;47.820;10.534;2022-09-20T07:51:47;8.90;72.70
21734;DHT22;11029;47.820;10.534;2022-09-20T07:54:15;9.00;70.10
21734;DHT22;11029;47.820;10.534;2022-09-20T07:56:41;9.00;71.00
21734;DHT22;11029;47.820;10.534;2022-09-20T07:59:08;9.00;72.40
21734;DHT22;11029;47.820;10.534;2022-09-20T08:01:36;9.10;72.20
21734;DHT22;11029;47.820;10.534;2022-09-20T08:04:04;9.20;70.20
21734;DHT22;11029;47.820;10.534;2022-09-20T08:06:34;9.30;70.40
21734;DHT22;11029;47.820;10.534;2022-09-20T08:09:01;9.50;70.80
21734;DHT22;11029;47.820;10.534;2022-09-20T08:11:27;9.60;70.90
21734;DHT22;11029;47.820;10.534;2022-09-20T08:13:57;9.60;70.50
21734;DHT22;11029;47.820;10.534;2022-09-20T08:16:45;9.20;69.20
21734;DHT22;11029;47.820;10.534;2022-09-20T08:19:21;9.20;70.00
21734;DHT22;11029;47.820;10.534;2022-09-20T08:21:50;9.00;71.40
21734;DHT22;11029;47.820;10.534;2022-09-20T08:24:18;9.00;71.20
21734;DHT22;11029;47.820;10.534;2022-09-20T08:26:44;9.10;70.20
21734;DHT22;11029;47.820;10.534;2022-09-20T08:29:11;9.10;71.20
21734;DHT22;11029;47.820;10.534;2022-09-20T08:31:40;9.10;70.50
21734;DHT22;11029;47.820;10.534;2022-09-20T08:34:10;9.00;70.50
21734;DHT22;11029;47.820;10.534;2022-09-20T08:36:39;9.10;70.20
21734;DHT22;11029;47.820;10.534;2022-09-20T08:39:07;9.30;70.60
21734;DHT22;11029;47.820;10.534;2022-09-20T08:42:00;9.50;69.70
21734;DHT22;11029;47.820;10.534;2022-09-20T08:44:42;9.70;69.30
21734;DHT22;11029;47.820;10.534;2022-09-20T08:47:18;9.80;68.60
21734;DHT22;11029;47.820;10.534;2022-09-20T08:49:46;9.80;68.60
21734;DHT22;11029;47.820;10.534;2022-09-20T08:52:31;9.70;70.50
21734;DHT22;11029;47.820;10.534;2022-09-20T08:55:17;9.80;68.70
21734;DHT22;11029;47.820;10.534;2022-09-20T08:57:53;9.70;68.90
21734;DHT22;11029;47.820;10.534;2022-09-20T09:00:28;9.60;69.00
21734;DHT22;11029;47.820;10.534;2022-09-20T09:02:58;9.70;70.00
21734;DHT22;11029;47.820;10.534;2022-09-20T09:05:34;9.50;69.40
21734;DHT22;11029;47.820;10.534;2022-09-20T09:08:05;9.40;69.70
21734;DHT22;11029;47.820;10.534;2022-09-20T09:10:36;9.50;69.50
21734;DHT22;11029;47.820;10.534;2022-09-20T09:15:52;9.70;68.80
21734;DHT22;11029;47.820;10.534;2022-09-20T09:18:19;9.70;69.20
21734;DHT22;11029;47.820;10.534;2022-09-20T09:20:46;9.80;69.10
21734;DHT22;11029;47.820;10.534;2022-09-20T09:23:22;9.90;66.70
21734;DHT22;11029;47.820;10.534;2022-09-20T09:25:52;10.10;66.50
21734;DHT22;11029;47.820;10.534;2022-09-20T09:28:24;10.10;67.30
21734;DHT22;11029;47.820;10.534;2022-09-20T09:30:52;10.00;66.80
21734;DHT22;11029;47.820;10.534;2022-09-20T09:33:33;9.90;69.00
21734;DHT22;11029;47.820;10.534;2022-09-20T09:38:37;9.80;71.20
21734;DHT22;11029;47.820;10.534;2022-09-20T09:41:17;9.60;70.70
21734;DHT22;11029;47.820;10.534;2022-09-20T09:44:01;9.60;71.20
21734;DHT22;11029;47.820;10.534;2022-09-20T09:46:33;9.40;71.60
21734;DHT22;11029;47.820;10.534;2022-09-20T09:52:13;9.30;72.10
21734;DHT22;11029;47.820;10.534;2022-09-20T09:54:51;9.20;72.20
21734;DHT22;11029;47.820;10.534;2022-09-20T09:57:43;9.20;71.60
21734;DHT22;11029;47.820;10.534;2022-09-20T10:00:16;9.30;71.80
21734;DHT22;11029;47.820;10.534;2022-09-20T10:06:03;9.60;70.00
21734;DHT22;11029;47.820;10.534;2022-09-20T10:09:08;9.70;69.10
21734;DHT22;11029;47.820;10.534;2022-09-20T10:26:06;10.00;69.10
21734;DHT22;11029;47.820;10.534;2022-09-20T10:37:59;10.10;67.60
21734;DHT22;11029;47.820;10.534;2022-09-20T10:42:48;10.10;65.40
21734;DHT22;11029;47.820;10.534;2022-09-20T10:48:47;10.20;65.60
21734;DHT22;11029;47.820;10.534;2022-09-20T10:51:23;10.40;67.20
21734;DHT22;11029;47.820;10.534;2022-09-20T10:54:09;10.50;65.40
21734;DHT22;11029;47.820;10.534;2022-09-20T10:56:53;10.40;64.50
21734;DHT22;11029;47.820;10.534;2022-09-20T10:59:55;10.20;65.00
21734;DHT22;11029;47.820;10.534;2022-09-20T11:05:38;10.40;65.90
21734;DHT22;11029;47.820;10.534;2022-09-20T11:08:21;10.40;65.40
21734;DHT22;11029;47.820;10.534;2022-09-20T11:10:52;10.50;65.50
21734;DHT22;11029;47.820;10.534;2022-09-20T11:15:59;10.60;65.80
21734;DHT22;11029;47.820;10.534;2022-09-20T11:18:36;10.50;63.10
21734;DHT22;11029;47.820;10.534;2022-09-20T11:21:13;10.40;62.20
21734;DHT22;11029;47.820;10.534;2022-09-20T11:24:04;10.30;63.60
21734;DHT22;11029;47.820;10.534;2022-09-20T11:26:40;10.50;65.20
21734;DHT22;11029;47.820;10.534;2022-09-20T11:29:14;10.60;65.40
21734;DHT22;11029;47.820;10.534;2022-09-20T11:31:45;10.70;64.90
21734;DHT22;11029;47.820;10.534;2022-09-20T11:34:29;10.90;65.30
21734;DHT22;11029;47.820;10.534;2022-09-20T11:37:00;11.10;63.90
21734;DHT22;11029;47.820;10.534;2022-09-20T11:39:47;11.30;61.50
21734;DHT22;11029;47.820;10.534;2022-09-20T11:42:21;11.50;61.50
21734;DHT22;11029;47.820;10.534;2022-09-20T11:44:49;11.60;62.00
21734;DHT22;11029;47.820;10.534;2022-09-20T11:47:22;11.60;61.20
21734;DHT22;11029;47.820;10.534;2022-09-20T11:58:15;11.60;60.10
21734;DHT22;11029;47.820;10.534;2022-09-20T12:00:44;11.60;61.90
21734;DHT22;11029;47.820;10.534;2022-09-20T12:05:59;11.50;61.00
21734;DHT22;11029;47.820;10.534;2022-09-20T12:08:29;11.20;62.90
21734;DHT22;11029;47.820;10.534;2022-09-20T12:11:12;10.90;61.80
21734;DHT22;11029;47.820;10.534;2022-09-20T12:13:42;10.50;61.60
21734;DHT22;11029;47.820;10.534;2022-09-20T12:16:36;10.40;61.80
21734;DHT22;11029;47.820;10.534;2022-09-20T12:19:51;10.60;61.50
21734;DHT22;11029;47.820;10.534;2022-09-20T12:24:36;10.60;61.60
21734;DHT22;11029;47.820;10.534;2022-09-20T12:30:05;10.70;60.40
21734;DHT22;11029;47.820;10.534;2022-09-20T12:38:29;11.20;60.10
21734;DHT22;11029;47.820;10.534;2022-09-20T12:43:27;11.30;59.20
21734;DHT22;11029;47.820;10.534;2022-09-20T12:45:55;11.20;59.30
21734;DHT22;11029;47.820;10.534;2022-09-20T12:48:34;11.10;58.30
21734;DHT22;11029;47.820;10.534;2022-09-20T12:51:23;11.10;57.30
21734;DHT22;11029;47.820;10.534;2022-09-20T12:54:13;10.90;58.50
21734;DHT22;11029;47.820;10.534;2022-09-20T12:56:40;10.80;58.60
21734;DHT22;11029;47.820;10.534;2022-09-20T12:59:26;10.80;59.50
21734;DHT22;11029;47.820;10.534;2022-09-20T13:05:02;11.00;59.20
21734;DHT22;11029;47.820;10.534;2022-09-20T13:07:38;11.00;59.50
21734;DHT22;11029;47.820;10.534;2022-09-20T13:10:33;11.00;58.90
21734;DHT22;11029;47.820;10.534;2022-09-20T13:13:09;11.30;59.00
21734;DHT22;11029;47.820;10.534;2022-09-20T13:15:37;11.60;56.80
21734;DHT22;11029;47.820;10.534;2022-09-20T13:18:06;11.60;55.20
21734;DHT22;11029;47.820;10.534;2022-09-20T13:20:40;11.40;55.50
21734;DHT22;11029;47.820;10.534;2022-09-20T13:23:17;11.30;55.60
21734;DHT22;11029;47.820;10.534;2022-09-20T13:25:46;11.10;57.00
21734;DHT22;11029;47.820;10.534;2022-09-20T13:28:37;11.30;57.10
21734;DHT22;11029;47.820;10.534;2022-09-20T13:31:35;11.40;56.10
21734;DHT22;11029;47.820;10.534;2022-09-20T13:34:17;11.50;56.50
21734;DHT22;11029;47.820;10.534;2022-09-20T13:36:46;11.60;54.90
21734;DHT22;11029;47.820;10.534;2022-09-20T13:39:25;11.80;55.10
21734;DHT22;11029;47.820;10.534;2022-09-20T13:41:52;12.60;53.70
21734;DHT22;11029;47.820;10.534;2022-09-20T13:44:19;12.90;52.20
21734;DHT22;11029;47.820;10.534;2022-09-20T13:46:46;13.00;51.30
21734;DHT22;11029;47.820;10.534;2022-09-20T13:49:19;12.50;52.50
21734;DHT22;11029;47.820;10.534;2022-09-20T13:51:50;12.20;53.10
21734;DHT22;11029;47.820;10.534;2022-09-20T13:54:34;12.50;52.20
21734;DHT22;11029;47.820;10.534;2022-09-20T13:57:09;13.00;52.30
21734;DHT22;11029;47.820;10.534;2022-09-20T14:00:01;13.10;51.20
21734;DHT22;11029;47.820;10.534;2022-09-20T14:02:52;13.20;53.30
21734;DHT22;11029;47.820;10.534;2022-09-20T14:05:24;12.90;50.80
21734;DHT22;11029;47.820;10.534;2022-09-20T14:07:59;12.80;51.20
21734;DHT22;11029;47.820;10.534;2022-09-20T14:10:49;13.20;50.70
21734;DHT22;11029;47.820;10.534;2022-09-20T14:13:34;13.50;49.70
21734;DHT22;11029;47.820;10.534;2022-09-20T14:16:05;13.70;47.80
21734;DHT22;11029;47.820;10.534;2022-09-20T14:18:34;14.00;48.30
21734;DHT22;11029;47.820;10.534;2022-09-20T14:21:10;13.60;49.70
21734;DHT22;11029;47.820;10.534;2022-09-20T14:23:52;13.20;48.00
21734;DHT22;11029;47.820;10.534;2022-09-20T14:26:26;12.80;48.70
21734;DHT22;11029;47.820;10.534;2022-09-20T14:28:54;12.80;49.40
21734;DHT22;11029;47.820;10.534;2022-09-20T14:31:31;12.90;49.60
21734;DHT22;11029;47.820;10.534;2022-09-20T14:34:03;13.10;50.50
21734;DHT22;11029;47.820;10.534;2022-09-20T14:36:48;13.70;48.00
21734;DHT22;11029;47.820;10.534;2022-09-20T14:39:52;14.00;46.60
21734;DHT22;11029;47.820;10.534;2022-09-20T14:43:32;14.00;47.40
21734;DHT22;11029;47.820;10.534;2022-09-20T14:46:57;15.00;45.10
21734;DHT22;11029;47.820;10.534;2022-09-20T14:49:48;16.10;43.20
21734;DHT22;11029;47.820;10.534;2022-09-20T14:52:34;17.00;41.80
21734;DHT22;11029;47.820;10.534;2022-09-20T14:55:19;16.40;42.10
21734;DHT22;11029;47.820;10.534;2022-09-20T14:57:52;15.80;44.20
21734;DHT22;11029;47.820;10.534;2022-09-20T15:00:18;17.20;40.70
21734;DHT22;11029;47.820;10.534;2022-09-20T15:02:46;18.30;39.50
21734;DHT22;11029;47.820;10.534;2022-09-20T15:05:31;18.40;38.00
21734;DHT22;11029;47.820;10.534;2022-09-20T15:07:59;16.60;40.30
21734;DHT22;11029;47.820;10.534;2022-09-20T15:10:26;15.20;44.30
21734;DHT22;11029;47.820;10.534;2022-09-20T15:12:53;15.50;44.50
21734;DHT22;11029;47.820;10.534;2022-09-20T15:15:20;16.40;42.80
21734;DHT22;11029;47.820;10.534;2022-09-20T15:17:47;18.00;40.30
21734;DHT22;11029;47.820;10.534;2022-09-20T15:20:19;18.30;38.80
21734;DHT22;11029;47.820;10.534;2022-09-20T15:22:50;18.30;39.70
21734;DHT22;11029;47.820;10.534;2022-09-20T15:25:19;18.50;38.90
21734;DHT22;11029;47.820;10.534;2022-09-20T15:27:48;18.60;38.40
21734;DHT22;11029;47.820;10.534;2022-09-20T15:30:18;18.50;38.70
21734;DHT22;11029;47.820;10.534;2022-09-20T15:32:46;18.40;37.80
21734;DHT22;11029;47.820;10.534;2022-09-20T15:35:13;16.40;41.00
21734;DHT22;11029;47.820;10.534;2022-09-20T15:37:40;14.50;43.40
21734;DHT22;11029;47.820;10.534;2022-09-20T15:40:07;14.70;45.40
21734;DHT22;11029;47.820;10.534;2022-09-20T15:42:34;15.00;43.40
21734;DHT22;11029;47.820;10.534;2022-09-20T15:45:08;14.90;42.60
21734;DHT22;11029;47.820;10.534;2022-09-20T15:47:36;14.40;45.70
21734;DHT22;11029;47.820;10.534;2022-09-20T15:50:05;14.80;42.80
21734;DHT22;11029;47.820;10.534;2022-09-20T15:52:35;14.40;45.30
21734;DHT22;11029;47.820;10.534;2022-09-20T15:55:03;14.00;46.10
21734;DHT22;11029;47.820;10.534;2022-09-20T15:57:30;14.90;44.80
21734;DHT22;11029;47.820;10.534;2022-09-20T15:59:57;15.10;43.30
21734;DHT22;11029;47.820;10.534;2022-09-20T16:02:25;15.20;43.60
21734;DHT22;11029;47.820;10.534;2022-09-20T16:04:52;15.40;41.70
21734;DHT22;11029;47.820;10.534;2022-09-20T16:07:23;15.10;41.80
21734;DHT22;11029;47.820;10.534;2022-09-20T16:09:54;16.00;40.60
21734;DHT22;11029;47.820;10.534;2022-09-20T16:12:22;16.40;40.10
21734;DHT22;11029;47.820;10.534;2022-09-20T16:14:50;16.60;39.60
21734;DHT22;11029;47.820;10.534;2022-09-20T16:17:17;16.70;39.20
21734;DHT22;11029;47.820;10.534;2022-09-20T16:19:43;16.90;38.60
21734;DHT22;11029;47.820;10.534;2022-09-20T16:22:14;16.70;37.40
21734;DHT22;11029;47.820;10.534;2022-09-20T16:24:41;16.20;40.10
21734;DHT22;11029;47.820;10.534;2022-09-20T16:27:08;16.30;39.60
21734;DHT22;11029;47.820;10.534;2022-09-20T16:29:35;16.40;40.20
21734;DHT22;11029;47.820;10.534;2022-09-20T16:32:04;16.30;39.20
21734;DHT22;11029;47.820;10.534;2022-09-20T16:34:35;15.60;40.50
21734;DHT22;11029;47.820;10.534;2022-09-20T16:37:09;15.20;41.10
21734;DHT22;11029;47.820;10.534;2022-09-20T16:39:37;13.70;44.40
21734;DHT22;11029;47.820;10.534;2022-09-20T16:42:05;13.20;45.70
21734;DHT22;11029;47.820;10.534;2022-09-20T16:44:35;12.80;47.10
21734;DHT22;11029;47.820;10.534;2022-09-20T16:47:07;12.30;47.50
21734;DHT22;11029;47.820;10.534;2022-09-20T16:49:35;12.10;48.50
21734;DHT22;11029;47.820;10.534;2022-09-20T16:52:09;12.00;48.50
21734;DHT22;11029;47.820;10.534;2022-09-20T16:54:36;11.80;48.70
21734;DHT22;11029;47.820;10.534;2022-09-20T16:57:03;11.60;49.60
21734;DHT22;11029;47.820;10.534;2022-09-20T16:59:31;11.50;49.90
21734;DHT22;11029;47.820;10.534;2022-09-20T17:01:57;11.20;50.40
21734;DHT22;11029;47.820;10.534;2022-09-20T17:04:24;11.00;51.60
21734;DHT22;11029;47.820;10.534;2022-09-20T17:06:51;11.10;53.10
21734;DHT22;11029;47.820;10.534;2022-09-20T17:09:18;10.90;53.70
21734;DHT22;11029;47.820;10.534;2022-09-20T17:11:47;10.70;54.70
21734;DHT22;11029;47.820;10.534;2022-09-20T17:14:17;10.60;54.70
21734;DHT22;11029;47.820;10.534;2022-09-20T17:16:45;10.40;55.10
21734;DHT22;11029;47.820;10.534;2022-09-20T17:19:17;10.30;55.70
21734;DHT22;11029;47.820;10.534;2022-09-20T17:21:46;10.30;55.70
21734;DHT22;11029;47.820;10.534;2022-09-20T17:24:21;10.10;56.30
21734;DHT22;11029;47.820;10.534;2022-09-20T17:26:49;9.80;57.60
21734;DHT22;11029;47.820;10.534;2022-09-20T17:29:17;9.80;58.70
21734;DHT22;11029;47.820;10.534;2022-09-20T17:31:46;9.70;59.60
21734;DHT22;11029;47.820;10.534;2022-09-20T17:34:21;9.80;59.60
21734;DHT22;11029;47.820;10.534;2022-09-20T17:36:48;9.80;59.90
21734;DHT22;11029;47.820;10.534;2022-09-20T17:39:15;9.70;60.90
21734;DHT22;11029;47.820;10.534;2022-09-20T17:41:46;9.80;61.10
21734;DHT22;11029;47.820;10.534;2022-09-20T17:44:14;9.80;60.90
21734;DHT22;11029;47.820;10.534;2022-09-20T17:46:46;9.80;61.50
21734;DHT22;11029;47.820;10.534;2022-09-20T17:49:17;9.80;61.20
21734;DHT22;11029;47.820;10.534;2022-09-20T17:51:55;9.70;61.90
21734;DHT22;11029;47.820;10.534;2022-09-20T17:54:22;9.70;62.10
21734;DHT22;11029;47.820;10.534;2022-09-20T17:56:52;9.70;61.80
21734;DHT22;11029;47.820;10.534;2022-09-20T17:59:21;9.70;61.60
21734;DHT22;11029;47.820;10.534;2022-09-20T18:01:49;9.50;61.90
21734;DHT22;11029;47.820;10.534;2022-09-20T18:04:17;9.20;63.50
21734;DHT22;11029;47.820;10.534;2022-09-20T18:06:51;9.10;63.70
21734;DHT22;11029;47.820;10.534;2022-09-20T18:09:20;9.00;63.60
21734;DHT22;11029;47.820;10.534;2022-09-20T18:11:50;9.00;62.50
21734;DHT22;11029;47.820;10.534;2022-09-20T18:14:20;8.90;63.80
21734;DHT22;11029;47.820;10.534;2022-09-20T18:16:55;9.00;63.10
21734;DHT22;11029;47.820;10.534;2022-09-20T18:19:23;8.90;63.20
21734;DHT22;11029;47.820;10.534;2022-09-20T18:21:57;8.80;64.60
21734;DHT22;11029;47.820;10.534;2022-09-20T18:24:24;8.80;64.40
21734;DHT22;11029;47.820;10.534;2022-09-20T18:26:52;8.80;64.60
21734;DHT22;11029;47.820;10.534;2022-09-20T18:29:19;8.80;64.90
21734;DHT22;11029;47.820;10.534;2022-09-20T18:31:47;8.60;64.90
21734;DHT22;11029;47.820;10.534;2022-09-20T18:34:17;8.40;65.30
21734;DHT22;11029;47.820;10.534;2022-09-20T18:36:46;8.10;66.20
21734;DHT22;11029;47.820;10.534;2022-09-20T18:39:21;8.10;66.50
21734;DHT22;11029;47.820;10.534;2022-09-20T18:41:48;8.00;66.20
21734;DHT22;11029;47.820;10.534;2022-09-20T18:44:16;8.00;66.70
21734;DHT22;11029;47.820;10.534;2022-09-20T18:46:44;7.90;66.70
21734;DHT22;11029;47.820;10.534;2022-09-20T18:49:13;7.90;66.50
21734;DHT22;11029;47.820;10.534;2022-09-20T18:51:41;7.90;66.50
21734;DHT22;11029;47.820;10.534;2022-09-20T18:54:09;7.90;66.40
21734;DHT22;11029;47.820;10.534;2022-09-20T18:56:39;7.80;66.80
21734;DHT22;11029;47.820;10.534;2022-09-20T18:59:17;7.90;67.10
21734;DHT22;11029;47.820;10.534;2022-09-20T19:01:54;8.00;65.80
21734;DHT22;11029;47.820;10.534;2022-09-20T19:04:46;7.70;65.00
21734;DHT22;11029;47.820;10.534;2022-09-20T19:09:47;7.40;66.20
21734;DHT22;11029;47.820;10.534;2022-09-20T19:21:02;7.20;67.40
21734;DHT22;11029;47.820;10.534;2022-09-20T19:26:28;7.20;67.30
21734;DHT22;11029;47.820;10.534;2022-09-20T19:28:57;7.20;67.30
21734;DHT22;11029;47.820;10.534;2022-09-20T19:31:30;7.00;68.10
21734;DHT22;11029;47.820;10.534;2022-09-20T19:34:00;7.00;68.00
21734;DHT22;11029;47.820;10.534;2022-09-20T19:39:22;6.90;67.60
21734;DHT22;11029;47.820;10.534;2022-09-20T19:45:09;6.80;68.00
21734;DHT22;11029;47.820;10.534;2022-09-20T19:50:44;6.70;68.80
21734;DHT22;11029;47.820;10.534;2022-09-20T19:53:13;6.60;68.70
21734;DHT22;11029;47.820;10.534;2022-09-20T19:55:45;6.60;68.50
21734;DHT22;11029;47.820;10.534;2022-09-20T19:58:13;6.50;68.80
21734;DHT22;11029;47.820;10.534;2022-09-20T20:00:44;6.60;68.80
21734;DHT22;11029;47.820;10.534;2022-09-20T20:03:12;6.60;69.50
21734;DHT22;11029;47.820;10.534;2022-09-20T20:05:49;6.50;70.00
21734;DHT22;11029;47.820;10.534;2022-09-20T20:08:22;6.50;69.70
21734;DHT22;11029;47.820;10.534;2022-09-20T20:10:56;6.40;69.70
21734;DHT22;11029;47.820;10.534;2022-09-20T20:19:36;6.40;69.40